Time;durP1;ratioP1;P1;durP2;ratioP2;P2;SDS_P1;SDS_P2;PMS_P1;PMS_P2;Temp;Humidity;BMP_temperature;BMP_pressure;BME280_temperature;BME280_humidity;BME280_pressure;Samples;Min_cycle;Max_cycle;Signal;HPM_P1;HPM_P2
2022/09/14 00:01:34;;;;;;;;;9.75;9.25;;;;;22.53;75.75;100297.69;5018732;28;45310;-94
2022/09/14 00:04:02;;;;;;;;;14.00;13.00;;;;;22.52;75.79;100293.38;5035262;28;47437;-94
2022/09/14 00:06:29;;;;;;;;;13.50;13.25;;;;;22.52;75.94;100286.25;5036294;28;45829;-94
2022/09/14 00:08:57;;;;;;;;;14.25;13.00;;;;;22.55;75.43;100274.56;5018859;28;45500;-94
2022/09/14 00:11:24;;;;;;;;;20.75;12.00;;;;;22.53;76.10;100264.06;5035004;28;45482;-94
2022/09/14 00:13:50;;;;;;;;;13.50;12.50;;;;;22.52;76.11;100267.69;5018681;28;46936;-94
2022/09/14 00:16:28;;;;;;;;;12.00;10.25;;;;;22.53;76.41;100265.88;5002179;28;45627;-95
2022/09/14 00:18:56;;;;;;;;;13.25;11.75;;;;;22.52;75.92;100249.13;5052284;28;45424;-94
2022/09/14 00:21:23;;;;;;;;;14.50;12.50;;;;;22.55;75.63;100245.38;5036381;28;45292;-95
2022/09/14 00:23:49;;;;;;;;;17.25;13.75;;;;;22.56;75.98;100249.69;5018391;28;46993;-94
2022/09/14 00:26:17;;;;;;;;;15.25;12.75;;;;;22.55;76.00;100246.22;5018447;28;45294;-93
2022/09/14 00:28:45;;;;;;;;;12.75;11.75;;;;;22.55;75.83;100248.88;5055275;28;45326;-94
2022/09/14 00:31:11;;;;;;;;;13.50;11.00;;;;;22.54;75.24;100247.16;5022107;28;45437;-94
2022/09/14 00:33:37;;;;;;;;;12.25;12.25;;;;;22.53;75.72;100252.59;5021429;28;46580;-95
2022/09/14 00:36:09;;;;;;;;;12.00;12.00;;;;;22.50;75.21;100252.91;5022266;28;45859;-96
2022/09/14 00:38:35;;;;;;;;;14.75;12.25;;;;;22.44;76.07;100235.69;5038016;28;45423;-92
2022/09/14 00:41:01;;;;;;;;;15.25;12.50;;;;;22.43;76.43;100244.63;5021999;28;45468;-95
2022/09/14 00:43:26;;;;;;;;;12.25;11.75;;;;;22.40;75.64;100235.13;5021768;28;47432;-95
2022/09/14 00:45:52;;;;;;;;;15.25;11.75;;;;;22.38;75.83;100241.50;5021394;28;55198;-95
2022/09/14 00:48:18;;;;;;;;;15.25;14.25;;;;;22.35;76.36;100245.28;5021597;28;45342;-95
2022/09/14 00:50:43;;;;;;;;;14.25;11.75;;;;;22.37;75.76;100229.25;5038380;28;45542;-95
2022/09/14 00:53:08;;;;;;;;;15.25;14.25;;;;;22.35;75.99;100229.38;5033520;28;45383;-94
2022/09/14 00:55:34;;;;;;;;;13.00;11.25;;;;;22.35;75.76;100212.63;5021578;28;45246;-95
2022/09/14 00:58:00;;;;;;;;;15.00;13.00;;;;;22.32;76.49;100205.78;5037844;28;45512;-95
2022/09/14 01:00:27;;;;;;;;;15.25;12.75;;;;;22.26;76.35;100208.97;5038987;28;45443;-95
2022/09/14 01:02:52;;;;;;;;;16.50;12.00;;;;;22.21;76.37;100190.78;5001299;28;48214;-95
2022/09/14 01:05:25;;;;;;;;;19.25;14.00;;;;;22.19;76.85;100195.38;5018449;28;45460;-94
2022/09/14 01:08:07;;;;;;;;;16.50;13.00;;;;;22.16;77.22;100189.50;5021063;28;45282;-95
2022/09/14 01:10:59;;;;;;;;;17.75;12.25;;;;;22.11;77.29;100181.94;5021293;28;45500;-95
2022/09/14 01:13:42;;;;;;;;;9.50;9.00;;;;;22.07;77.41;100175.22;5038654;28;45377;-95
2022/09/14 01:16:21;;;;;;;;;13.50;10.50;;;;;22.08;77.02;100163.66;5021247;28;45760;-96
2022/09/14 01:18:53;;;;;;;;;11.00;10.25;;;;;22.07;77.31;100167.28;5030808;28;45299;-96
2022/09/14 01:21:31;;;;;;;;;10.00;10.00;;;;;22.11;77.54;100167.84;5021017;28;45494;-95
2022/09/14 01:24:25;;;;;;;;;11.50;8.00;;;;;22.09;77.36;100177.75;5020716;28;45540;-95
2022/09/14 01:26:59;;;;;;;;;8.00;7.00;;;;;22.05;77.08;100169.22;5037556;28;46023;-94
2022/09/14 01:29:38;;;;;;;;;8.25;8.25;;;;;22.02;77.10;100166.84;5038610;28;45337;-95
2022/09/14 01:32:20;;;;;;;;;8.75;8.50;;;;;22.01;77.33;100150.09;5021131;28;45288;-95
2022/09/14 01:35:01;;;;;;;;;6.50;5.50;;;;;22.01;77.26;100149.28;5020751;28;46878;-94
2022/09/14 01:37:33;;;;;;;;;9.00;7.75;;;;;22.02;77.84;100146.47;5020577;28;45523;-96
2022/09/14 01:40:04;;;;;;;;;11.25;6.25;;;;;21.98;77.17;100144.22;5036877;28;45356;-94
2022/09/14 01:42:31;;;;;;;;;9.25;8.00;;;;;22.01;77.72;100143.97;5054160;28;45336;-94
2022/09/14 01:44:59;;;;;;;;;6.75;6.75;;;;;22.03;77.02;100136.72;5021014;28;45499;-96
2022/09/14 01:47:35;;;;;;;;;8.25;6.00;;;;;22.05;77.25;100161.28;5004091;28;45509;-95
2022/09/14 01:50:06;;;;;;;;;7.00;7.00;;;;;22.00;76.87;100182.84;5020783;28;45328;-95
2022/09/14 01:52:39;;;;;;;;;6.00;5.25;;;;;21.99;77.13;100172.38;5036946;28;45472;-96
2022/09/14 01:55:24;;;;;;;;;6.00;6.00;;;;;22.00;77.66;100172.25;5020748;28;45390;-96
2022/09/14 01:58:26;;;;;;;;;7.75;6.50;;;;;22.05;77.43;100169.22;5020327;28;45746;-96
2022/09/14 02:00:54;;;;;;;;;6.00;4.75;;;;;22.01;76.36;100163.34;5007691;28;45349;-95
2022/09/14 02:03:28;;;;;;;;;7.00;7.00;;;;;22.01;77.13;100154.56;5037161;28;45267;-95
2022/09/14 02:06:02;;;;;;;;;7.75;5.00;;;;;21.99;76.86;100135.28;5037719;28;45395;-95
2022/09/14 02:08:29;;;;;;;;;8.25;5.00;;;;;21.99;77.00;100138.78;5037192;28;45340;-96
2022/09/14 02:10:56;;;;;;;;;7.50;6.00;;;;;21.98;77.25;100160.13;5003905;28;45317;-96
2022/09/14 02:13:21;;;;;;;;;6.00;4.00;;;;;21.94;77.49;100179.91;5020519;28;45503;-96
2022/09/14 02:15:46;;;;;;;;;6.75;5.25;;;;;21.92;77.27;100179.22;5020517;28;46370;-96
2022/09/14 02:18:12;;;;;;;;;6.75;5.00;;;;;21.92;77.39;100182.69;5019934;28;58643;-96
2022/09/14 02:20:51;;;;;;;;;6.75;6.25;;;;;21.95;77.40;100184.22;5002461;28;68545;-95
2022/09/14 02:23:17;;;;;;;;;6.00;5.00;;;;;21.97;77.04;100161.09;5037392;28;45369;-96
2022/09/14 02:25:44;;;;;;;;;5.25;5.00;;;;;21.95;76.93;100163.03;5036795;28;45454;-96
2022/09/14 02:28:09;;;;;;;;;6.25;4.00;;;;;21.94;77.31;100158.72;5036756;28;45321;-96
2022/09/14 02:30:46;;;;;;;;;6.75;5.00;;;;;21.95;77.13;100173.63;5016737;28;45503;-96
2022/09/14 02:33:22;;;;;;;;;4.50;4.50;;;;;21.87;76.50;100187.53;5011251;28;45592;-96
2022/09/14 02:35:52;;;;;;;;;4.50;4.50;;;;;21.84;77.33;100193.09;5020108;28;45388;-96
2022/09/14 02:38:52;;;;;;;;;3.75;3.75;;;;;21.83;77.68;100183.47;5003668;28;45761;-95
2022/09/14 02:41:20;;;;;;;;;5.00;5.00;;;;;21.81;77.63;100183.59;5037909;28;45365;-94
2022/09/14 02:43:54;;;;;;;;;5.00;3.00;;;;;21.83;77.25;100186.94;5036543;28;45576;-95
2022/09/14 02:46:45;;;;;;;;;5.00;4.00;;;;;21.84;77.65;100191.28;5019917;28;45400;-96
2022/09/14 02:49:27;;;;;;;;;5.00;5.00;;;;;21.86;77.61;100185.88;5036418;28;45809;-96
2022/09/14 02:52:21;;;;;;;;;5.25;3.00;;;;;21.88;77.92;100177.75;5018941;28;45353;-95
2022/09/14 02:54:58;;;;;;;;;3.25;3.25;;;;;21.89;77.96;100180.28;5002428;28;45607;-96
2022/09/14 02:57:24;;;;;;;;;3.25;3.25;;;;;21.90;77.59;100168.72;5035902;28;47419;-96
2022/09/14 02:59:53;;;;;;;;;4.75;3.50;;;;;21.93;77.11;100175.56;5053005;28;45627;-96
2022/09/14 03:02:18;;;;;;;;;6.75;5.00;;;;;21.89;77.13;100177.63;5019885;28;45373;-95
2022/09/14 03:04:44;;;;;;;;;6.00;5.00;;;;;21.88;77.46;100180.41;5019268;28;45309;-96
2022/09/14 03:07:09;;;;;;;;;5.50;4.00;;;;;21.84;77.45;100183.34;5037091;28;46554;-95
2022/09/14 03:09:34;;;;;;;;;6.00;3.00;;;;;21.87;77.49;100168.16;5019312;28;53732;-96
2022/09/14 03:12:00;;;;;;;;;5.25;3.50;;;;;21.88;77.29;100165.38;5019723;28;45299;-96
2022/09/14 03:14:25;;;;;;;;;5.00;3.25;;;;;21.87;77.38;100173.47;5019284;28;45367;-96
2022/09/14 03:16:50;;;;;;;;;3.50;3.50;;;;;21.84;77.00;100170.09;5002633;28;58402;-95
2022/09/14 03:19:16;;;;;;;;;5.75;4.00;;;;;21.82;77.08;100176.47;5019044;28;45437;-95
2022/09/14 03:21:41;;;;;;;;;3.50;3.50;;;;;21.80;77.81;100174.00;5019543;28;45370;-95
2022/09/14 03:24:07;;;;;;;;;5.00;4.75;;;;;21.78;77.61;100178.53;5019335;28;45469;-95
2022/09/14 03:26:35;;;;;;;;;6.75;4.00;;;;;21.77;77.86;100168.09;5019051;28;47200;-95
2022/09/14 03:29:02;;;;;;;;;4.75;4.75;;;;;21.76;77.83;100175.19;5019807;28;45777;-95
2022/09/14 03:31:27;;;;;;;;;6.50;4.25;;;;;21.76;77.60;100169.91;5019272;28;45322;-95
2022/09/14 03:33:55;;;;;;;;;5.25;2.25;;;;;21.75;77.61;100178.84;5035042;28;45436;-96
2022/09/14 03:36:21;;;;;;;;;4.00;4.00;;;;;21.77;77.97;100173.41;5037077;28;47032;-92
2022/09/14 03:38:49;;;;;;;;;5.00;4.00;;;;;21.81;77.73;100161.56;5018905;28;45427;-96
2022/09/14 03:41:14;;;;;;;;;7.00;5.25;;;;;21.83;77.52;100155.16;5037339;28;45329;-96
2022/09/14 03:43:41;;;;;;;;;5.00;5.00;;;;;21.85;77.47;100150.56;5019072;28;45413;-95
2022/09/14 03:46:11;;;;;;;;;7.50;7.00;;;;;21.81;77.17;100150.97;5036763;28;45597;-95
2022/09/14 03:48:37;;;;;;;;;6.00;4.00;;;;;21.80;77.55;100159.88;5036387;28;45403;-96
2022/09/14 03:51:05;;;;;;;;;6.00;4.50;;;;;21.79;77.48;100160.88;5019028;28;45363;-96
2022/09/14 03:53:30;;;;;;;;;8.25;6.25;;;;;21.77;77.55;100158.34;5019209;28;45491;-95
2022/09/14 03:55:56;;;;;;;;;6.00;4.25;;;;;21.77;77.44;100161.00;5036382;28;46130;-95
2022/09/14 03:58:22;;;;;;;;;7.50;5.75;;;;;21.74;77.53;100165.72;5018712;28;45425;-95
2022/09/14 04:00:47;;;;;;;;;10.50;7.00;;;;;21.70;77.67;100166.94;5035490;28;45498;-95
2022/09/14 04:03:13;;;;;;;;;5.75;4.75;;;;;21.68;77.64;100172.38;5021179;28;45383;-95
2022/09/14 04:05:38;;;;;;;;;10.50;6.25;;;;;21.62;78.24;100178.19;5022386;28;46539;-96
2022/09/14 04:08:04;;;;;;;;;5.25;4.00;;;;;21.54;76.71;100178.81;5055235;28;45388;-95
2022/09/14 04:10:29;;;;;;;;;4.25;4.25;;;;;21.55;76.93;100167.25;5040203;28;45263;-96
2022/09/14 04:12:55;;;;;;;;;4.75;4.75;;;;;21.57;76.97;100165.31;5022238;28;45562;-96
2022/09/14 04:15:20;;;;;;;;;4.00;4.00;;;;;21.55;76.82;100174.38;5022084;28;45394;-96
2022/09/14 04:17:46;;;;;;;;;6.50;5.00;;;;;21.53;76.43;100171.84;5021722;28;45350;-96
2022/09/14 04:20:12;;;;;;;;;6.00;4.25;;;;;21.53;76.86;100155.13;5039959;28;45404;-95
2022/09/14 04:22:37;;;;;;;;;4.00;4.00;;;;;21.54;77.18;100152.34;5040525;28;45537;-95
2022/09/14 04:25:03;;;;;;;;;5.50;4.25;;;;;21.52;76.89;100145.50;5039687;28;45560;-96
2022/09/14 04:27:29;;;;;;;;;5.25;4.00;;;;;21.49;76.59;100138.66;5039589;28;45484;-95
2022/09/14 04:29:55;;;;;;;;;6.00;4.75;;;;;21.50;76.98;100134.19;5039560;28;45274;-96
2022/09/14 04:32:20;;;;;;;;;4.50;4.00;;;;;21.48;76.64;100133.50;5021592;28;45306;-95
2022/09/14 04:34:47;;;;;;;;;6.00;5.00;;;;;21.49;77.14;100132.50;5021971;28;46243;-95
2022/09/14 04:37:13;;;;;;;;;4.00;4.00;;;;;21.51;77.07;100122.63;5039685;28;45740;-96
2022/09/14 04:39:38;;;;;;;;;4.00;4.00;;;;;21.47;76.92;100127.38;5022054;28;45353;-96
2022/09/14 04:42:04;;;;;;;;;5.25;4.25;;;;;21.45;76.98;100130.13;5022036;28;45277;-95
2022/09/14 04:44:29;;;;;;;;;5.50;5.50;;;;;21.44;77.36;100125.81;5021855;28;46041;-95
2022/09/14 04:46:55;;;;;;;;;6.00;5.00;;;;;21.44;77.27;100128.44;5005131;28;45390;-96
2022/09/14 04:49:20;;;;;;;;;6.00;4.00;;;;;21.40;76.65;100140.25;5021617;28;53751;-95
2022/09/14 04:51:46;;;;;;;;;5.50;5.00;;;;;21.39;76.70;100143.00;5022006;28;45575;-93
2022/09/14 04:54:14;;;;;;;;;5.25;5.25;;;;;21.36;76.46;100141.47;5039234;28;46582;-95
2022/09/14 04:56:40;;;;;;;;;5.75;4.00;;;;;21.36;77.21;100130.00;5054886;28;45866;-94
2022/09/14 04:59:06;;;;;;;;;5.50;4.25;;;;;21.36;76.67;100136.19;5039623;28;45429;-95
2022/09/14 05:01:35;;;;;;;;;6.50;5.00;;;;;21.34;76.73;100129.31;5021274;28;45452;-95
2022/09/14 05:04:02;;;;;;;;;5.50;5.00;;;;;21.31;76.32;100138.38;5021261;28;45479;-95
2022/09/14 05:06:30;;;;;;;;;4.25;4.00;;;;;21.31;76.91;100125.13;5021352;28;45393;-94
2022/09/14 05:08:58;;;;;;;;;5.00;4.00;;;;;21.36;77.36;100120.28;5038119;28;45376;-95
2022/09/14 05:11:25;;;;;;;;;4.75;4.75;;;;;21.41;77.39;100109.31;5038308;28;45305;-95
2022/09/14 05:13:51;;;;;;;;;5.75;5.25;;;;;21.44;77.19;100104.63;5020289;28;45523;-95
2022/09/14 05:16:18;;;;;;;;;4.00;4.00;;;;;21.46;77.33;100110.63;5037669;28;46045;-95
2022/09/14 05:18:44;;;;;;;;;4.00;4.00;;;;;21.49;77.05;100096.31;5038016;28;45376;-95
2022/09/14 05:21:12;;;;;;;;;7.00;5.75;;;;;21.50;77.30;100100.59;5021192;28;45377;-95
2022/09/14 05:23:37;;;;;;;;;4.75;4.75;;;;;21.52;76.97;100087.25;5021043;28;47254;-94
2022/09/14 05:26:04;;;;;;;;;4.00;4.00;;;;;21.53;77.16;100081.81;5038538;28;45360;-95
2022/09/14 05:28:30;;;;;;;;;5.75;5.00;;;;;21.53;76.77;100088.94;5038285;28;45376;-95
2022/09/14 05:30:56;;;;;;;;;5.00;4.00;;;;;21.50;76.90;100082.06;5021042;28;45492;-95
2022/09/14 05:33:24;;;;;;;;;6.00;6.00;;;;;21.50;77.29;100091.84;5037170;28;47020;-95
2022/09/14 05:35:50;;;;;;;;;6.00;6.00;;;;;21.49;77.36;100092.78;5038713;28;45710;-94
2022/09/14 05:38:16;;;;;;;;;5.25;5.00;;;;;21.51;76.77;100086.41;5038526;28;45272;-95
2022/09/14 05:40:41;;;;;;;;;6.00;4.00;;;;;21.50;76.60;100076.78;5057211;28;45523;-94
2022/09/14 05:43:07;;;;;;;;;6.00;4.75;;;;;21.51;77.11;100082.91;5020244;28;46200;-96
2022/09/14 05:45:33;;;;;;;;;6.25;5.75;;;;;21.51;76.63;100081.13;5037348;28;45464;-95
2022/09/14 05:48:05;;;;;;;;;8.00;5.50;;;;;21.51;76.63;100091.72;5004329;28;45349;-95
2022/09/14 05:50:32;;;;;;;;;9.50;6.50;;;;;21.46;76.78;100089.44;5038396;28;45573;-95
2022/09/14 05:52:57;;;;;;;;;6.00;5.00;;;;;21.43;76.90;100108.22;5038123;28;46575;-95
2022/09/14 05:55:23;;;;;;;;;8.50;7.00;;;;;21.41;77.18;100096.94;5037221;28;45364;-95
2022/09/14 05:57:54;;;;;;;;;8.25;6.00;;;;;21.42;77.50;100101.22;5036649;28;45432;-95
2022/09/14 06:00:20;;;;;;;;;7.00;6.25;;;;;21.42;77.46;100111.81;5037833;28;45390;-94
2022/09/14 06:02:49;;;;;;;;;8.00;7.00;;;;;21.39;77.43;100114.72;5037580;28;45478;-92
2022/09/14 06:05:15;;;;;;;;;6.25;5.00;;;;;21.39;77.66;100122.66;5003453;28;45737;-91
2022/09/14 06:07:41;;;;;;;;;7.00;6.00;;;;;21.42;77.10;100132.16;5037899;28;45256;-91
2022/09/14 06:10:07;;;;;;;;;8.00;6.25;;;;;21.42;77.54;100143.59;5036760;28;46430;-92
2022/09/14 06:12:32;;;;;;;;;8.00;7.00;;;;;21.50;77.65;100139.50;5019829;28;46544;-91
2022/09/14 06:15:00;;;;;;;;;8.50;6.25;;;;;21.57;77.63;100127.41;5036879;28;51311;-91
2022/09/14 06:17:28;;;;;;;;;8.00;8.00;;;;;21.62;77.32;100130.53;5037757;28;45470;-91
2022/09/14 06:19:53;;;;;;;;;7.50;7.50;;;;;21.63;77.21;100130.38;5036593;28;45369;-89
2022/09/14 06:22:19;;;;;;;;;7.50;6.50;;;;;21.62;76.70;100139.31;5000710;28;47029;-92
2022/09/14 06:24:44;;;;;;;;;5.00;5.00;;;;;21.61;76.70;100144.72;5036901;28;45550;-91
2022/09/14 06:27:09;;;;;;;;;11.25;7.25;;;;;21.60;76.13;100151.84;5037019;28;45416;-90
2022/09/14 06:29:35;;;;;;;;;7.50;6.00;;;;;21.59;76.12;100144.84;5018024;28;65591;-90
2022/09/14 06:32:00;;;;;;;;;6.00;5.00;;;;;21.60;76.65;100141.25;5036525;28;45326;-90
2022/09/14 06:34:26;;;;;;;;;6.25;5.75;;;;;21.62;76.05;100139.31;5036610;28;45371;-89
2022/09/14 06:36:51;;;;;;;;;6.50;5.50;;;;;21.67;76.68;100144.19;5036983;28;45504;-92
2022/09/14 06:39:16;;;;;;;;;7.00;6.00;;;;;21.74;76.52;100131.28;5032507;28;45380;-91
2022/09/14 06:41:42;;;;;;;;;6.75;4.50;;;;;21.81;76.40;100125.31;5046428;28;57203;-91
2022/09/14 06:44:07;;;;;;;;;4.00;4.00;;;;;21.86;76.79;100117.00;5001774;28;45541;-91
2022/09/14 06:46:33;;;;;;;;;5.25;5.00;;;;;21.93;76.63;100114.63;5051877;28;45342;-90
2022/09/14 06:49:09;;;;;;;;;7.00;6.00;;;;;21.99;76.74;100116.75;5019352;28;45488;-91
2022/09/14 06:51:39;;;;;;;;;8.00;6.50;;;;;22.02;76.68;100119.97;5019986;28;45785;-92
2022/09/14 06:54:05;;;;;;;;;6.50;5.00;;;;;21.99;76.32;100135.28;5046967;28;45387;-88
2022/09/14 06:56:37;;;;;;;;;7.50;6.00;;;;;22.01;76.72;100130.72;5034317;28;45303;-87
2022/09/14 06:59:07;;;;;;;;;9.00;6.25;;;;;22.06;76.45;100136.44;5036161;28;45372;-88
2022/09/14 07:01:33;;;;;;;;;6.50;5.75;;;;;22.13;76.58;100140.25;5035660;28;47319;-87
2022/09/14 07:04:00;;;;;;;;;8.00;5.25;;;;;22.16;75.69;100145.28;5017813;28;45421;-86
2022/09/14 07:06:27;;;;;;;;;7.00;6.00;;;;;22.26;76.51;100148.00;5014197;28;45475;-86
2022/09/14 07:08:53;;;;;;;;;10.25;7.00;;;;;22.36;75.72;100137.41;5034246;28;45344;-88
2022/09/14 07:11:21;;;;;;;;;7.75;7.75;;;;;22.44;76.02;100139.41;5027254;28;46329;-88
2022/09/14 07:13:47;;;;;;;;;8.00;5.50;;;;;22.48;75.93;100124.91;5031666;28;45758;-89
2022/09/14 07:16:13;;;;;;;;;5.00;4.00;;;;;22.53;74.91;100131.47;5014180;28;45449;-92
2022/09/14 07:18:39;;;;;;;;;6.00;5.00;;;;;22.54;75.26;100142.91;5034245;28;45641;-89
2022/09/14 07:21:15;;;;;;;;;8.50;4.75;;;;;22.48;75.13;100133.69;5016566;28;46396;-89
2022/09/14 07:23:43;;;;;;;;;6.00;5.00;;;;;22.44;74.76;100144.72;5015831;28;45614;-90
2022/09/14 07:26:17;;;;;;;;;7.50;5.00;;;;;22.41;74.48;100136.03;5003949;28;45668;-88
2022/09/14 07:28:44;;;;;;;;;7.25;6.00;;;;;22.46;75.35;100138.28;5003671;28;45417;-90
2022/09/14 07:31:18;;;;;;;;;7.00;3.50;;;;;22.48;75.10;100140.81;5016443;28;45531;-90
2022/09/14 07:33:44;;;;;;;;;5.75;5.75;;;;;22.43;74.97;100151.81;5034572;28;45795;-91
2022/09/14 07:36:13;;;;;;;;;6.00;6.00;;;;;22.34;74.71;100158.78;5034721;28;45421;-92
2022/09/14 07:38:39;;;;;;;;;6.00;6.00;;;;;22.23;74.89;100158.81;5019903;28;45484;-89
2022/09/14 07:41:05;;;;;;;;;6.25;6.25;;;;;22.17;75.13;100149.59;5036127;28;46276;-88
2022/09/14 07:43:31;;;;;;;;;5.50;5.50;;;;;22.20;75.61;100144.03;5034130;28;45471;-89
2022/09/14 07:45:56;;;;;;;;;6.00;5.25;;;;;22.27;75.06;100138.22;5019900;28;45401;-87
2022/09/14 07:48:22;;;;;;;;;5.00;4.75;;;;;22.30;75.15;100149.41;5020406;28;45409;-90
2022/09/14 07:50:47;;;;;;;;;9.00;6.00;;;;;22.34;75.23;100163.22;5036874;28;46542;-93
2022/09/14 07:53:13;;;;;;;;;7.25;6.00;;;;;22.39;75.03;100161.00;5019984;28;45688;-91
2022/09/14 07:55:39;;;;;;;;;6.25;5.50;;;;;22.44;75.03;100150.84;5002687;28;45627;-92
2022/09/14 07:58:05;;;;;;;;;5.00;5.00;;;;;22.49;74.81;100161.91;5020027;28;45528;-90
2022/09/14 08:00:31;;;;;;;;;6.00;6.00;;;;;22.52;74.55;100163.44;5037821;28;46855;-90
2022/09/14 08:02:58;;;;;;;;;4.75;4.75;;;;;22.48;74.21;100162.03;5037205;28;45877;-91
2022/09/14 08:05:24;;;;;;;;;7.00;5.50;;;;;22.54;74.37;100170.25;5017977;28;45886;-92
2022/09/14 08:07:54;;;;;;;;;5.75;5.75;;;;;22.62;74.40;100169.56;5026697;28;45485;-92
2022/09/14 08:10:19;;;;;;;;;6.00;6.00;;;;;22.67;73.54;100169.19;5022655;28;47463;-91
2022/09/14 08:12:49;;;;;;;;;5.00;4.00;;;;;22.76;73.67;100169.19;5005334;28;62120;-90
2022/09/14 08:15:14;;;;;;;;;5.00;5.00;;;;;22.87;73.77;100181.50;5020347;28;45321;-90
2022/09/14 08:17:40;;;;;;;;;6.00;5.00;;;;;22.98;73.50;100185.84;5034185;28;45401;-93
2022/09/14 08:20:05;;;;;;;;;5.75;4.25;;;;;23.08;72.28;100193.84;5033235;28;74069;-92
2022/09/14 08:22:31;;;;;;;;;6.75;5.00;;;;;23.13;72.75;100194.28;5018460;28;45415;-91
2022/09/14 08:24:57;;;;;;;;;8.00;5.25;;;;;23.19;72.66;100194.56;5018675;28;45369;-87
2022/09/14 08:27:22;;;;;;;;;4.50;4.00;;;;;23.35;73.09;100194.00;5018146;28;45395;-93
2022/09/14 08:29:47;;;;;;;;;6.25;4.75;;;;;23.49;71.93;100206.00;5048598;28;47228;-91
2022/09/14 08:32:13;;;;;;;;;5.25;5.00;;;;;23.68;71.41;100205.16;5053318;28;73001;-92
2022/09/14 08:34:38;;;;;;;;;6.50;5.00;;;;;23.84;70.88;100212.56;5023174;28;69242;-91
2022/09/14 08:37:03;;;;;;;;;4.00;4.00;;;;;23.99;70.41;100220.09;5049812;28;58187;-90
2022/09/14 08:39:29;;;;;;;;;9.00;6.00;;;;;24.15;69.67;100212.34;5020894;28;47173;-90
2022/09/14 08:41:56;;;;;;;;;4.75;4.50;;;;;24.27;69.00;100220.97;5035875;28;45511;-90
2022/09/14 08:44:41;;;;;;;;;8.00;4.75;;;;;24.38;69.41;100219.97;5013109;28;45895;-91
2022/09/14 08:47:24;;;;;;;;;6.00;4.00;;;;;24.49;69.14;100215.28;5034752;28;45540;-90
2022/09/14 08:49:53;;;;;;;;;5.25;4.00;;;;;24.54;68.17;100220.22;4983212;28;47392;-89
2022/09/14 08:52:33;;;;;;;;;5.50;4.00;;;;;24.60;67.62;100221.44;5033010;28;45499;-89
2022/09/14 08:55:01;;;;;;;;;6.00;4.00;;;;;24.62;67.41;100222.97;5035523;28;45709;-89
2022/09/14 08:57:33;;;;;;;;;5.50;5.00;;;;;24.56;68.09;100220.06;5025701;28;45488;-89
2022/09/14 09:00:24;;;;;;;;;6.75;3.00;;;;;24.48;67.84;100218.94;5040139;28;45514;-92
2022/09/14 09:03:10;;;;;;;;;6.25;5.25;;;;;24.42;67.19;100219.50;5036258;28;45347;-92
2022/09/14 09:05:59;;;;;;;;;6.25;5.25;;;;;24.33;67.20;100215.94;5042960;28;45411;-93
2022/09/14 09:08:37;;;;;;;;;7.00;4.00;;;;;24.28;67.23;100217.34;4995411;28;45453;-91
2022/09/14 09:11:06;;;;;;;;;6.75;5.00;;;;;24.26;67.47;100219.31;4994773;28;47108;-92
2022/09/14 09:13:34;;;;;;;;;3.25;3.25;;;;;24.25;68.34;100217.63;4965644;28;45820;-90
2022/09/14 09:16:03;;;;;;;;;8.00;3.75;;;;;24.29;66.85;100217.22;4968392;28;45580;-91
2022/09/14 09:18:41;;;;;;;;;4.25;4.25;;;;;24.33;65.97;100223.06;4958007;28;45581;-89
2022/09/14 09:21:18;;;;;;;;;5.75;4.50;;;;;24.42;65.37;100222.16;4959459;28;48060;-92
2022/09/14 09:23:44;;;;;;;;;5.75;3.00;;;;;24.54;63.57;100214.88;4980651;28;45497;-91
2022/09/14 09:26:16;;;;;;;;;3.75;3.75;;;;;24.58;64.46;100216.25;4984798;28;45553;-91
2022/09/14 09:28:45;;;;;;;;;0.50;0.50;;;;;24.64;64.19;100220.16;4963148;28;45564;-89
2022/09/14 09:31:12;;;;;;;;;4.00;4.00;;;;;24.66;63.25;100212.84;4981586;28;45828;-91
2022/09/14 09:33:38;;;;;;;;;2.50;2.50;;;;;24.70;63.75;100211.56;4959215;28;45727;-88
2022/09/14 09:36:05;;;;;;;;;4.50;4.00;;;;;24.72;62.38;100209.59;4967130;28;55954;-91
2022/09/14 09:38:30;;;;;;;;;4.75;2.25;;;;;24.73;62.43;100221.94;4974605;28;45639;-90
2022/09/14 09:41:16;;;;;;;;;4.00;2.00;;;;;24.70;61.62;100208.91;4977021;28;67050;-89
2022/09/14 09:44:08;;;;;;;;;5.50;2.25;;;;;24.75;61.35;100213.78;4958665;28;45684;-90
2022/09/14 09:46:36;;;;;;;;;3.50;3.50;;;;;24.83;61.41;100217.41;5030899;28;45554;-89
2022/09/14 09:49:04;;;;;;;;;2.75;2.50;;;;;24.91;59.63;100208.66;5049035;28;45375;-91
2022/09/14 09:51:31;;;;;;;;;2.00;2.00;;;;;25.02;59.77;100211.09;5041291;28;47558;-90
2022/09/14 09:54:12;;;;;;;;;6.00;2.00;;;;;25.19;60.47;100212.09;5030250;28;45430;-91
2022/09/14 09:56:50;;;;;;;;;2.00;2.00;;;;;25.40;58.57;100214.47;5035408;28;45380;-91
2022/09/14 09:59:34;;;;;;;;;2.00;2.00;;;;;25.57;59.04;100215.44;5045100;28;45615;-92
2022/09/14 10:02:19;;;;;;;;;4.75;2.00;;;;;25.75;57.28;100223.41;5055317;28;46228;-90
2022/09/14 10:05:07;;;;;;;;;2.00;2.00;;;;;25.86;57.93;100222.31;5036981;28;45399;-89
2022/09/14 10:07:38;;;;;;;;;3.25;3.00;;;;;25.94;57.24;100218.91;5039030;28;45458;-93
2022/09/14 10:10:09;;;;;;;;;3.25;3.25;;;;;26.05;58.38;100208.81;5018438;28;45627;-95
2022/09/14 10:12:36;;;;;;;;;4.00;3.00;;;;;26.26;57.67;100211.09;5047828;28;45547;-92
2022/09/14 10:15:28;;;;;;;;;3.75;3.75;;;;;26.44;56.61;100215.50;5016110;28;45851;-93
2022/09/14 10:18:08;;;;;;;;;2.75;2.50;;;;;26.56;55.01;100208.03;5039185;28;45462;-96
2022/09/14 10:20:38;;;;;;;;;3.00;3.00;;;;;26.53;55.02;100206.53;5031953;28;45450;-96
2022/09/14 10:23:35;;;;;;;;;3.00;2.50;;;;;26.51;54.49;100194.38;5041092;28;48302;-92
2022/09/14 10:26:09;;;;;;;;;3.00;3.00;;;;;26.49;54.61;100196.34;4959360;28;45459;-93
2022/09/14 10:28:34;;;;;;;;;1.00;1.00;;;;;26.43;53.70;100189.84;4974687;28;45464;-94
2022/09/14 10:31:05;;;;;;;;;2.00;1.50;;;;;26.36;54.51;100194.97;4974613;28;45532;-93
2022/09/14 10:33:31;;;;;;;;;2.25;2.00;;;;;26.42;53.25;100188.97;4979780;28;46855;-94
2022/09/14 10:36:15;;;;;;;;;3.00;2.25;;;;;26.42;54.32;100188.97;4977879;28;45674;-95
2022/09/14 10:39:02;;;;;;;;;2.75;2.00;;;;;26.35;54.28;100181.78;4977563;28;45643;-92
2022/09/14 10:41:59;;;;;;;;;3.00;2.75;;;;;26.26;55.39;100183.56;4973365;28;45550;-89
2022/09/14 10:44:32;;;;;;;;;2.00;2.00;;;;;26.33;55.19;100179.25;4954824;28;45544;-89
2022/09/14 10:47:10;;;;;;;;;3.00;2.25;;;;;26.50;53.57;100188.16;4939811;28;45838;-90
2022/09/14 10:49:58;;;;;;;;;2.25;1.25;;;;;26.65;53.15;100183.06;4956719;28;45711;-89
2022/09/14 10:52:23;;;;;;;;;2.00;2.00;;;;;26.93;52.47;100174.78;4960200;28;45681;-90
2022/09/14 10:55:18;;;;;;;;;3.50;2.00;;;;;27.13;51.74;100170.81;4980769;28;46323;-89
2022/09/14 10:58:16;;;;;;;;;2.00;2.00;;;;;27.27;50.88;100173.88;4984049;28;45384;-90
2022/09/14 11:01:04;;;;;;;;;3.00;2.50;;;;;27.54;51.89;100156.66;4974581;28;45480;-93
2022/09/14 11:03:39;;;;;;;;;2.00;2.00;;;;;27.87;50.98;100156.59;5008821;28;45620;-93
2022/09/14 11:06:26;;;;;;;;;2.25;2.25;;;;;28.13;49.81;100154.53;5036914;28;46554;-93
2022/09/14 11:08:57;;;;;;;;;1.00;1.00;;;;;28.35;50.60;100160.97;5055465;28;45428;-91
2022/09/14 11:11:34;;;;;;;;;4.00;2.50;;;;;28.53;48.75;100162.59;5029790;28;47035;-91
2022/09/14 11:14:25;;;;;;;;;4.00;2.25;;;;;28.64;48.65;100159.53;5017557;28;45623;-89
2022/09/14 11:16:59;;;;;;;;;3.00;2.00;;;;;28.74;48.92;100156.59;5050117;28;47119;-93
2022/09/14 11:19:53;;;;;;;;;4.75;3.00;;;;;28.82;48.25;100159.22;5035077;28;45836;-94
2022/09/14 11:22:44;;;;;;;;;3.00;2.00;;;;;28.88;48.67;100150.50;5020419;28;45345;-93
2022/09/14 11:25:17;;;;;;;;;6.00;2.75;;;;;29.01;47.75;100155.25;5028601;28;45502;-93
2022/09/14 11:27:47;;;;;;;;;2.50;1.25;;;;;29.33;47.08;100156.03;5040355;28;47451;-95
2022/09/14 11:30:14;;;;;;;;;2.50;2.50;;;;;30.26;46.37;100156.59;5018030;28;45777;-89
2022/09/14 11:33:02;;;;;;;;;1.25;1.25;;;;;30.78;44.68;100168.16;5023434;28;45325;-92
2022/09/14 11:35:33;;;;;;;;;1.75;0.00;;;;;31.16;40.52;100162.56;5036681;28;45477;-92
2022/09/14 11:38:02;;;;;;;;;1.25;1.00;;;;;31.92;42.12;100164.59;5034831;28;45766;-94
2022/09/14 11:40:51;;;;;;;;;3.00;1.00;;;;;32.15;39.95;100172.41;5049100;28;45419;-94